KNRS/NRS METAR and TAF weather

Enter ICAO airport designator
Station Type Date Time Source
KNRS METAR 2019/02/22 22:56 UTC NOAA

KNRS 222256Z 25009KT 10SM FEW040 FEW200 14/04 A3006 RMK AO2 SLP178 T01390044 $


Station Type Date Time Source
KNRS Decoded METAR 2019/02/22 22:56 UTC NOAA

IMPERIAL BEACH, NOLF, CA, United States (KNRS) 32-34N 117-07W 5M
Feb 22, 2019 - 05:56 PM EST / 2019.02.22 2256 UTC
Wind: from the WSW (250 degrees) at 10 MPH (9 KT):0
Visibility: 10 mile(s):0
Sky conditions: mostly clear
Temperature: 57.0 F (13.9 C)
Dew Point: 39.9 F (4.4 C)
Relative Humidity: 52%
Pressure (altimeter): 30.06 in. Hg (1017 hPa)
ob: KNRS 222256Z 25009KT 10SM FEW040 FEW200 14/04 A3006 RMK AO2 SLP178 T01390044
cycle: 23

Station Type Date Time Source
KNRS TAF UTC NOAA

Error!


Example: see airport list